world map with KZR marked

KZR - Airport

This information may not be accurate or current and is not valid for navigation or flight planning. No warranty of fitness for any purpose is made or implied.

flag of Turkey

Donate via PayPal

Additional information is available on the NEW Great Circle Mapper

Location
City:  Kütahya, Turkey
Name:Zafer Airport
ICAO / IATA:LTBZ / KZR

Details
Type:Airport (Aerodrome, Airfield)
Use:Public/Civil
Latitude:39°06'41"N (39.111456)
Longitude:30°07'49"E (30.130217)
Runways:1
Longest:9843 × 148 ft (3000 × 45 m)

Time
Timezone:UTC+3 (DST+5)
Local Time:

Weather
METAR:LTBZ  040650Z 00000KT 3500 R31/P2000U R13/1600N BR NSC M01/M02 Q1023
TAF:LTBZ  (expired)

Related Locations
Nearby:
Farthest:RVV: 11373 mi / 18303 km
Raivavae, Tubuai Islands, Austral Islands, PF

Find:

   beyond  
but within

Other Information
Maps:
Links:
Sources:

  


 


Great Circle Mapper   Great Circle Mapper
Great Circle Mapper FAQ   Great Circle Mapper FAQ
  Karl's Home Page
KLS²   KLS² Home
   GC on Facebook
Airlines of the World   Airlines of the World
Donate via PayPal


Copyright © 2004-2019, Karl L. Swartz. All rights reserved.
All trademarks mentioned herein belong to their respective owners.

Please see credits for attribution and copyright information.

Karl Swartz <karl@kls2.com>
  Powered by FreeBSD
Valid HTML 4.01!
Labeled with ICRA
hCard Microformat
Geo Microformat